Tiempo atmosférico en la estación meteorológica de Cazalla De La Sierra, Sevilla (550 m.)



Fecha
DESCASC
Temp. máxima en grados centígrados (hora)
DESCASC
Temp. mínima en grados centígrados (hora)
DESCASC
Temp. media en grados centígrados
DESCASC
Racha de viento máxima en m/sg (hora)
DESCASC
Velocidad máxima media en intervalos de 10 minutos(hora)
DESCASC
Precipitaciones diarias en mm
DESCASC
Precipitaciones de 00:00 a 06:00 en mm
DESCASC
Precipitaciones de 06:00 a 12:00 en mm
DESCASC
Precipitaciones de 12:00 a 18:00 en mm
DESCASC
Precipitaciones de 18:00 a 24:00 en mm
DESCASC
23-05-2018 22.9 (17:50) 9 (06:50) 15.9 5.56 (12:50) 2.78 (16:10) 0.8 0 0.1 0.7 0
22-05-2018 21.4 (19:10) 10.8 (01:20) 16.1 5 (14:40) 2.5 (17:20) 0 0 0 0 0
21-05-2018 19.4 (19:00) 11.5 (07:30) 15.4 7.5 (15:20) 4.44 (15:20) 2.9 0.1 0 2.8 0
20-05-2018 19.5 (16:00) 8.8 (00:00) 14.2 7.5 (12:50) 3.89 (12:50) 4.4 0 0 0.4 4
19-05-2018 20.8 (15:40) 8.8 (07:20) 14.8 8.61 (17:10) 3.89 (17:10) 11 0.3 0 10.7 0
18-05-2018 21.1 (17:10) 9.1 (00:00) 15.1 5.83 (20:10) 2.78 (20:10) 7.7 0 0 0 7.7
17-05-2018 24.3 (19:40) 7.8 (00:00) 16 6.11 (15:00) 2.78 (15:00) 0 0 0 0 0
16-05-2018 24.6 (19:00) 8.3 (00:00) 16.5 7.5 (13:20) 3.33 (12:40) 0 0 0 0 0
15-05-2018 23 (18:00) 6.7 (00:00) 14.8 6.94 (14:00) 3.33 (09:40) 0 0 0 0 0
14-05-2018 21.3 (18:10) 7.1 (00:00) 14.2 7.78 (15:50) 3.89 (18:00) 0 0 0 0 0
13-05-2018 17.9 (17:10) 5.5 (00:00) 11.7 9.17 (06:20) 4.44 (11:00) 0 0 0 0 0
12-05-2018 17.5 (16:30) 8.4 (00:00) 12.9 11.11 (19:30) 5.83 (19:30) 0 0 0 0 0
11-05-2018 19.4 (18:50) 6.2 (07:30) 12.8 7.22 (13:30) 3.89 (14:50) 0 0 0 0 0
10-05-2018 19.2 (18:40) 10.6 (00:00) 14.9 4.72 (14:50) 2.5 (13:20) 0 0 0 0 0
09-05-2018 16.5 (18:00) 9.9 (00:00) 13.2 5.28 (19:10) 2.22 (20:20) 0 0 0 0 0
08-05-2018 21.9 (15:00) 9.4 (00:00) 15.6 7.22 (16:30) 3.89 (18:10) 8.3 0 0 0.3 8
07-05-2018 21.1 (15:30) 7.6 (00:00) 14.4 6.39 (14:00) 3.33 (17:20) 0 0 0 0 0
06-05-2018 21.8 (17:50) 8.6 (00:00) 15.2 7.22 (18:20) 3.61 (18:20) 0.1 0 0 0 0.1
05-05-2018 22.1 (19:00) 7.1 (00:00) 14.6 5.83 (13:50) 3.06 (13:50) 0 0 0 0 0
04-05-2018 20 (16:40) 7.2 (00:00) 13.6 11.11 (20:20) 3.06 (20:20) 0 0 0 0 0
03-05-2018 20.1 (18:20) 4.8 (00:00) 12.5 6.94 (16:00) 3.33 (17:10) 0 0 0 0 0
02-05-2018 15.9 (16:50) 2.7 (00:00) 9.3 8.06 (14:50) 3.61 (18:00) 0 0 0 0 0
01-05-2018 13.3 (13:40) 3.8 (02:40) 8.6 10.28 (16:00) 5 (16:00) 3.4 0 0 3.4 0
30-04-2018 13.2 (19:40) 2.4 (00:00) 7.8 6.11 (16:20) 3.61 (16:20) 0.6 0 0 0.6 0
29-04-2018 13.3 (15:40) 4.4 (00:00) 8.9 14.44 (17:40) 6.94 (17:40) 1.4 0.3 0.2 0.9 0
28-04-2018 15.4 (16:20) 6.6 (00:00) 11 8.89 (14:50) 4.72 (20:40) 1.6 0 0 0 1.6

Gráficas

Temp. máximas Temp. mínimas Temp. medias Precipitaciones Rachas de viento máximas Velocidades máximas media en intervalos de 10 minutos

Datos horarios

Fecha y hora oficial Temperatura (ºC) Velocidad del viento (km/h) Dirección del viento Racha (km/h) Dirección de racha Precipitación (mm) Presión (hPa) Tendencia (hPa) Humedad (%)
2018-05-27 23:00:00 14.8 8 Oeste 16 Oeste 0 952.1 1.7 66
2018-05-27 22:00:00 15.3 5 Sudoeste 17 Sudoeste 0 951.4 0.8 58
2018-05-27 21:00:00 16.5 5 Sur 15 Sudoeste 0 951 0.5 50
2018-05-27 20:00:00 17.6 6 Sudoeste 25 Oeste 0 950.4 0 44
2018-05-27 19:00:00 18.6 7 Sudoeste 28 Sudoeste 0 950.6 -0.3 44
2018-05-27 18:00:00 19.1 8 Sudoeste 24 Sudoeste 0 950.5 -1.1 43
2018-05-27 17:00:00 18.4 6 Sudoeste 24 Sudoeste 0 950.4 -1.3 43
2018-05-27 16:00:00 19.2 5 Oeste 17 Sudoeste 0 950.9 -1.1 47
2018-05-27 15:00:00 17.3 7 Sudoeste 17 Sudoeste 0 951.6 -0.5 47
2018-05-27 14:00:00 16.1 8 Sudoeste 18 Sur 0 951.7 -0.1 52
2018-05-27 13:00:00 15.9 8 Sudoeste 20 Oeste 0 952 0.8 56
2018-05-27 12:00:00 14.8 8 Sudoeste 18 Sudoeste 0 952.1 1.3 64
2018-05-27 11:00:00 14.8 0 Calma -- -- 0 951.8 1.3 66
2018-05-27 10:00:00 14.1 0 Calma -- -- 0 951.2 1 71
2018-05-27 09:00:00 13.4 0 Calma 0 Calma 0 950.8 1.2 87
2018-05-27 08:00:00 12.1 0 Calma 5 Este 0 950.5 0.8 88
2018-05-27 07:00:00 10.9 0 Calma 4 Sudoeste 0 950.2 0.6 88
2018-05-27 06:00:00 11.4 0 Calma 4 Este 0 949.6 -0.3 88
2018-05-27 05:00:00 11.4 4 Este 5 Este 0 949.7 -0.2 88
2018-05-27 04:00:00 9.6 2 Sudeste 5 Este 0 949.6 -0.6 87
2018-05-27 03:00:00 10.5 0 Calma 6 Sudeste 0 949.9 -0.3 87
2018-05-27 02:00:00 10.3 3 Este 5 Este 0 949.9 0.1 87
2018-05-27 01:00:00 10.4 3 Sudeste 5 Este 0 950.2 0.9 86
2018-05-27 00:00:00 11.5 3 Este 4 Este 0 950.2 1 83
2018-05-26 23:00:00 12.1 0 Calma 2 Este 0 949.8 1 73
2018-05-26 22:00:00 14.4 0 Calma 9 Sudoeste 0 949.3 0.6 60
2018-05-26 21:00:00 17.7 4 Sudoeste 12 Oeste 0 949.2 0.1 42
2018-05-26 20:00:00 18.8 6 Oeste 16 Sudoeste 0 948.8 -0.4 40
2018-05-26 19:00:00 19.2 4 Oeste 15 Sudoeste 0 948.7 -0.5 42
2018-05-26 18:00:00 18.3 5 Sudoeste 22 Sudoeste 0 949.1 -0.5 45
2018-05-26 17:00:00 18.7 4 Sudoeste 19 Sudoeste 0 949.2 -0.5 44
2018-05-26 16:00:00 17.9 7 Oeste 21 Sudoeste 0 949.2 -0.4 46
2018-05-26 15:00:00 17.2 0 Calma -- -- 0 949.6 -0.2 52
2018-05-26 14:00:00 16.9 0 Calma -- -- 0 949.7 -0.2 50
2018-05-26 13:00:00 16.1 0 Calma -- -- 0 949.6 -0.4 54
2018-05-26 12:00:00 15.8 0 Calma -- -- 0 949.8 -0.1 70
2018-05-26 11:00:00 12.8 0 Calma -- -- 0 949.9 0.4 83
2018-05-26 10:00:00 12.7 0 Calma -- -- 0 950 1 87
2018-05-26 09:00:00 12 0 Calma -- -- 0.8 949.9 1.3 88
2018-05-26 08:00:00 12.1 0 Calma -- -- 0 949.5 0.7 88
2018-05-26 07:00:00 11.5 0 Calma -- -- 0 949 -0.1 89
2018-05-26 06:00:00 11.1 0 Calma -- -- 0 948.6 -0.8 90
2018-05-26 05:00:00 10.3 0 Calma -- -- 0 948.8 -1.1 90
2018-05-26 04:00:00 10.2 0 Calma -- -- 0 949.1 -0.8 89
2018-05-26 03:00:00 10.1 0 Calma 5 Este 0 949.4 -1 88
2018-05-26 02:00:00 9.5 0 Calma 5 Sur 0 949.9 -0.2 86
2018-05-26 01:00:00 10.4 0 Calma 4 Oeste 0 949.9 0.5 85
2018-05-26 00:00:00 10.7 0 Calma 6 Oeste 0 950.4 1.4 82
2018-05-25 23:00:00 10.9 0 Calma 5 Sudoeste 0 950.1 1.4 76
2018-05-25 22:00:00 13 0 Calma 10 Sudoeste 0 949.4 0.7 63
2018-05-25 21:00:00 14.5 2 Sudoeste 19 Oeste 0 949 0.3 61
2018-05-25 20:00:00 14.9 11 Oeste 20 Oeste 0 948.7 -0.3 68
2018-05-25 19:00:00 14.3 5 Oeste 22 Sudoeste 0.5 948.7 -0.4 74
2018-05-25 18:00:00 15.7 8 Sudoeste 19 Sudoeste 0 948.7 -0.9 49
2018-05-25 17:00:00 15.4 9 Sur 22 Sur 0 949 -0.4 52
2018-05-25 16:00:00 15.9 5 Sur 19 Sur 0 949.1 -0.6 50
2018-05-25 15:00:00 15.9 5 Sur 18 Oeste 0.1 949.6 -0.2 63
2018-05-25 14:00:00 15.4 7 Sudoeste 19 Oeste 0 949.4 -0.6 53
2018-05-25 13:00:00 14.5 5 Sudeste 14 Sur 0 949.7 -0.2 62
2018-05-25 12:00:00 14.5 6 Sudeste 14 Este 0 949.8 0.1 73
2018-05-25 11:00:00 12 4 Sudeste 9 Este 3 950 0.9 85
2018-05-25 10:00:00 12.1 2 Sudeste 8 Este 0.4 949.9 1.2 83
2018-05-25 09:00:00 11.1 3 Este 9 Este 0.5 949.7 0.8 84
2018-05-25 08:00:00 10.7 0 Calma 5 Noroeste 0 949.1 -0.4 87
2018-05-25 07:00:00 10.6 3 Este 6 Este 0 948.7 -0.9 86
2018-05-25 06:00:00 10.9 2 Sudeste 5 Este 0 948.9 -1.2 87
2018-05-25 05:00:00 10.7 0 Calma 5 Este 0 949.5 -0.4 88
2018-05-25 04:00:00 10.4 0 Calma 10 Noroeste 0 949.6 -0.9 89
2018-05-25 03:00:00 10.8 0 Calma 12 Oeste 0 950.1 -0.6 90
2018-05-25 02:00:00 10.7 7 Oeste 12 Oeste 0 949.9 -0.7 89
2018-05-25 01:00:00 11.2 8 Noroeste 14 Noroeste 0 950.5 0.4 88
2018-05-25 00:00:00 11.7 5 Sudoeste 15 Oeste 0 950.7 0.9 87
2018-05-24 23:00:00 11.8 3 Oeste 9 Oeste 0 950.6 1.5 83
2018-05-24 22:00:00 12 0 Calma 13 Oeste 0 950.1 1.1 78
2018-05-24 21:00:00 12.8 8 Noroeste 20 Oeste 0 949.8 1 81
2018-05-24 20:00:00 13.8 9 Oeste 17 Noroeste 0 949.1 0.2 65
2018-05-24 19:00:00 14.9 5 Oeste 23 Oeste 0 949 0 59
2018-05-24 18:00:00 16.6 8 Oeste 20 Noroeste 0 948.8 -0.3 55
2018-05-24 17:00:00 16.2 5 Oeste 26 Oeste 0 948.9 -0.2 54
2018-05-24 16:00:00 16.3 12 Oeste 22 Noroeste 0 949 -0.2 58
2018-05-24 15:00:00 17.2 8 Oeste 47 Oeste 0 949.1 -0.2 56
2018-05-24 14:00:00 18 9 Oeste 28 Sudoeste 0 949.1 0 56
2018-05-24 13:00:00 17.6 14 Oeste 24 Oeste 0 949.2 0.4 57
2018-05-24 12:00:00 17.2 10 Oeste 19 Oeste 0 949.3 0.4 65
2018-05-24 11:00:00 17.5 7 Oeste 14 Sudoeste 0 949.1 -0.1 71
2018-05-24 10:00:00 16 0 Calma 8 Este 0 948.8 -1.2 72
2018-05-24 09:00:00 14.4 3 Sudeste 20 Nordeste 0.1 948.9 0 81
2018-05-24 08:00:00 13.4 6 Norte 19 Noroeste 1.6 949.2 -0.3 83
2018-05-24 07:00:00 13.8 6 Oeste 14 Noroeste 1.1 950 0.3 78
2018-05-24 06:00:00 13.9 5 Este 9 Este 0 948.9 -1.4 75
2018-05-24 05:00:00 12 3 Sudeste 5 Este 0 949.5 -1.2 83
2018-05-24 04:00:00 11.8 4 Sudeste 6 Este 0 949.7 -0.9 81
2018-05-24 03:00:00 12.6 3 Este 6 Este 0 950.3 -0.6 78
2018-05-24 02:00:00 13.9 0 Calma 6 Este 0 950.7 -0.3 74
2018-05-24 01:00:00 14.8 2 Este 8 Este 0 950.6 0 71
2018-05-24 00:00:00 14.5 3 Este 7 Este 0 950.9 0.3 74
2018-05-23 23:00:00 15.2 3 Este 5 Este 0 951 0.6 73
2018-05-23 22:00:00 16.2 2 Sudeste 4 Sudeste 0 950.6 0.2 69
2018-05-23 21:00:00 17.9 0 Calma 7 Noroeste 0 950.6 0.3 58
2018-05-23 20:00:00 19.2 4 Oeste 8 Oeste 0 950.4 -0.2 50
2018-05-23 19:00:00 21.8 3 Sur 13 Sur 0 950.4 -0.4 31
2018-05-23 18:00:00 22.6 4 Sur 12 Sudeste 0 950.3 -1.3 32
2018-05-23 17:00:00 21.1 5 Este 19 Este 0 950.6 -1.4 38
2018-05-23 16:00:00 19.4 8 Este 13 Este 0.2 950.8 -1.1 48
2018-05-23 15:00:00 16 4 Sudeste 13 Este 0.5 951.6 -0.6 65
2018-05-23 14:00:00 20.2 8 Sur 16 Sur 0 952 -0.1 30
2018-05-23 13:00:00 20 6 Sur 20 Sur 0 951.9 0.1 30
2018-05-23 12:00:00 20.5 5 Sudeste 18 Norte 0.1 952.2 0.5 33
2018-05-23 11:00:00 19.3 4 Sur 10 Sur 0 952.1 0.8 41
2018-05-23 10:00:00 17.9 3 Sudeste 9 Este 0 951.8 0.7 48
2018-05-23 09:00:00 15.9 5 Este 10 Este 0 951.7 0.7 61
2018-05-23 08:00:00 10.9 6 Este 9 Este 0 951.3 0.5 78
2018-05-23 07:00:00 9 6 Este 8 Este 0 951.1 0.1 83
2018-05-23 06:00:00 9.9 4 Sudeste 8 Este 0 951 -0.4 82
2018-05-23 05:00:00 9.7 4 Sudeste 8 Este 0 950.8 -0.9 82
2018-05-23 04:00:00 10.2 5 Sudeste 7 Este 0 951 -0.8 80
2018-05-23 03:00:00 10.6 4 Sudeste 8 Este 0 951.4 -0.5 79
2018-05-23 02:00:00 11 5 Este 8 Este 0 951.7 0.2 79
2018-05-23 01:00:00 11.2 5 Este 7 Este 0 951.8 1 80
2018-05-23 00:00:00 11.4 3 Este 6 Este 0 951.9 1.4 78
2018-05-22 23:00:00 11.9 3 Sudeste 5 Este 0 951.5 1.2 73
2018-05-22 22:00:00 13.7 3 Este 4 Este 0 950.8 0.5 62
2018-05-22 21:00:00 17.7 0 Calma 8 Oeste 0 950.5 0 44
2018-05-22 20:00:00 20.8 5 Oeste 14 Oeste 0 950.3 -0.4 28
2018-05-22 19:00:00 20.6 3 Sudoeste 14 Sudoeste 0 950.3 -0.6 26
2018-05-22 18:00:00 20.8 4 Sudoeste 18 Noroeste 0 950.5 -0.8 26
2018-05-22 17:00:00 20.3 5 Oeste 18 Oeste 0 950.7 -0.6 34
2018-05-22 16:00:00 19.7 4 Sudeste 17 Sur 0 950.9 -0.7 38
2018-05-22 15:00:00 18.7 6 Sur 18 Sudeste 0 951.3 -0.5 43
2018-05-22 14:00:00 18.3 4 Sur 15 Sur 0 951.3 -0.1 54
2018-05-22 13:00:00 16.4 4 Sur 14 Sur 0 951.6 0.5 60
2018-05-22 12:00:00 14.3 5 Sudeste 13 Sur 0 951.8 0.9 68
2018-05-22 11:00:00 13.1 2 Este 10 Sur 0 951.4 0.9 78
2018-05-22 10:00:00 12.1 4 Sudeste 11 Este 0 951.1 1.1 84
2018-05-22 09:00:00 11.9 3 Sudeste 8 Este 0 950.9 1.2 87
2018-05-22 08:00:00 11.8 0 Calma 6 Este 0 950.5 0.7 87
2018-05-22 07:00:00 11.9 0 Calma 6 Sur 0 950 0.1 89
2018-05-22 06:00:00 11.8 0 Calma 5 Sudoeste 0 949.7 -0.2 90
2018-05-22 05:00:00 12 3 Noroeste 10 Oeste 0 949.8 -0.4 90
2018-05-22 04:00:00 12.3 0 Calma 8 Oeste 0 949.9 -0.4 90
2018-05-22 03:00:00 12.4 3 Sudoeste 10 Oeste 0 949.9 -0.7 90
2018-05-22 02:00:00 12.4 2 Sur 7 Sur 0 950.2 0.1 87
2018-05-22 01:00:00 11.5 0 Calma 10 Sur 0 950.3 1 82
2018-05-22 00:00:00 12.2 0 Calma -- -- 0 950.6 1.7 76
2018-05-21 23:00:00 13.1 0 Calma 8 Sur 0 950.1 1.7 68
2018-05-21 22:00:00 14.8 5 Sur 12 Sur 0 949.3 1.3 56
2018-05-21 21:00:00 16.3 6 Sudoeste 16 Sudoeste 0 948.9 1 50
2018-05-21 20:00:00 16.6 5 Sudoeste 12 Oeste 0 948.4 -0.1 43
2018-05-21 19:00:00 18.1 5 Oeste 16 Oeste 0 948 -0.4 43
2018-05-21 18:00:00 17.1 6 Noroeste 20 Oeste 0 947.9 -0.4 54
2018-05-21 17:00:00 15.5 12 Noroeste 23 Oeste 0 948.5 -0.4 63
2018-05-21 16:00:00 14.9 2 Oeste 27 Noroeste 2.8 948.4 -0.7 75
2018-05-21 15:00:00 17.8 7 Sudoeste 22 Oeste 0 948.3 -1.1 46
2018-05-21 14:00:00 17.2 8 Sudoeste 17 Sur 0 948.9 -0.3 54
2018-05-21 13:00:00 17 5 Oeste 17 Oeste 0 949.1 0.1 62
2018-05-21 12:00:00 15.1 3 Sur 12 Sur 0 949.4 0.6 68
2018-05-21 11:00:00 14.6 2 Sudeste 8 Sur 0 949.2 0.7 72
2018-05-21 10:00:00 13.4 0 Calma -- -- 0 949 1 83
2018-05-21 09:00:00 12.3 0 Calma -- -- 0 948.8 1 89
2018-05-21 08:00:00 11.8 0 Calma -- -- 0 948.5 0.5 88
2018-05-21 07:00:00 11.8 0 Calma -- -- 0 948 -0.4 88
2018-05-21 06:00:00 11.7 0 Calma 3 Sur 0.1 947.8 -1 88
2018-05-21 05:00:00 11.8 0 Calma 3 Este 0 948 -1.1 88
2018-05-21 04:00:00 11.9 0 Calma 6 Oeste 0 948.4 -0.8 88
2018-05-21 03:00:00 12.1 0 Calma 4 Este 0 948.8 -0.7 88
2018-05-21 02:00:00 12 0 Calma 4 Sudeste 0 949.1 -0.4 88
2018-05-21 01:00:00 11.9 0 Calma 4 Este 0 949.2 -0.2 88
2018-05-21 00:00:00 11.6 0 Calma 7 Norte 0 949.5 0.2 87
2018-05-20 23:00:00 11.8 5 Noroeste 9 Oeste 0.1 949.5 1.3 86
2018-05-20 22:00:00 12.2 0 Calma 15 Sudoeste 1.8 949.4 1 81
2018-05-20 21:00:00 12.7 9 Oeste 19 Noroeste 2.1 949.3 0.7 67
2018-05-20 20:00:00 16.9 3 Este 10 Este 0 948.2 -0.5 50
2018-05-20 19:00:00 17.9 6 Nordeste 16 Nordeste 0 948.4 -0.2 49
2018-05-20 18:00:00 17.5 6 Norte 21 Oeste 0 948.6 -1.4 47
2018-05-20 17:00:00 17 13 Oeste 21 Oeste 0.1 948.7 -2.2 49
2018-05-20 16:00:00 19.5 5 Noroeste 13 Noroeste 0 948.6 -2.8 45
2018-05-20 15:00:00 15.6 3 Nordeste 19 Este 0.2 950 -0.8 61
2018-05-20 14:00:00 13.6 9 Este 20 Nordeste 0.1 950.9 0.3 69
2018-05-20 13:00:00 14.5 7 Nordeste 27 Norte 0 951.4 1 58
2018-05-20 12:00:00 16.8 7 Nordeste 15 Nordeste 0 950.8 0.1 57
2018-05-20 11:00:00 15.4 0 Calma -- -- 0 950.6 -0.1 69
2018-05-20 10:00:00 14 0 Calma -- -- 0 950.4 0 80
2018-05-20 09:00:00 12.2 0 Calma 4 Este 0 950.7 0.2 86
2018-05-20 08:00:00 10.6 3 Este 7 Este 0 950.7 0.3 88
2018-05-20 07:00:00 9.9 4 Este 5 Este 0 950.4 -0.4 89
2018-05-20 06:00:00 9.8 2 Sudeste 6 Este 0 950.5 -0.9 89
2018-05-20 05:00:00 9.3 2 Este 7 Este 0 950.4 -1.3 88
2018-05-20 04:00:00 10 5 Este 10 Este 0 950.8 -1.3 88
2018-05-20 03:00:00 9.8 4 Este 9 Este 0 951.4 -0.7 88
2018-05-20 02:00:00 10.2 4 Este 6 Este 0 951.7 -0.2 89
2018-05-20 01:00:00 10.7 0 Calma 6 Sudeste 0 952.1 0.2 87
2018-05-20 00:00:00 10.9 3 Sudeste 10 Oeste 0 952.1 0.1 86
2018-05-19 23:00:00 11.8 0 Calma 6 Sur 0 951.9 0.1 83
2018-05-19 22:00:00 12.6 0 Calma 12 Oeste 0 951.9 0.4 76
2018-05-19 21:00:00 14.5 4 Sudoeste 6 Sudoeste 0 952 1.1 66
2018-05-19 20:00:00 16.8 0 Calma 15 Sur 0 951.8 0.3 59
2018-05-19 19:00:00 16.5 3 Sudeste 16 Sur 0 951.5 0.5 63
2018-05-19 18:00:00 14.3 6 Norte 31 Norte 1.8 950.9 -0.7 68
2018-05-19 17:00:00 14.8 12 Norte 31 Nordeste 7.9 951.5 -0.7 55
2018-05-19 16:00:00 20.4 5 Sudoeste 23 Sudoeste 1 951 -1.5 41
2018-05-19 15:00:00 19.3 2 Oeste 13 Oeste 0 951.6 -0.9 40
2018-05-19 14:00:00 20.4 4 Este 15 Norte 0 952.2 -0.3 36
2018-05-19 13:00:00 20 3 Nordeste 12 Este 0 952.5 0.1 40
2018-05-19 12:00:00 18.9 4 Nordeste 14 Este 0 952.5 0.5 41
2018-05-19 11:00:00 16.9 3 Este 5 Nordeste 0 952.5 0.8 49
2018-05-19 10:00:00 14.1 0 Calma 6 Este 0 952.4 1 68
2018-05-19 09:00:00 12.2 5 Este 9 Este 0 952 0.7 79
2018-05-19 08:00:00 9.7 0 Calma 6 Este 0 951.7 0.5 87
2018-05-19 07:00:00 10.1 4 Este 11 Este 0 951.4 0.1 85
2018-05-19 06:00:00 10.6 4 Este 9 Este 0 951.3 -0.4 85
2018-05-19 05:00:00 11.8 4 Este 6 Este 0 951.2 -0.8 83
2018-05-19 04:00:00 12.2 3 Sudeste 7 Sudeste 0 951.3 -0.9 79
2018-05-19 03:00:00 12.1 3 Sudeste 8 Sudeste 0 951.7 -0.2 80
2018-05-19 02:00:00 12.2 3 Sudeste 9 Nordeste 0.3 952 0.4 80
2018-05-19 01:00:00 12.2 0 Calma 11 Sudeste 0 952.2 0.1 83
2018-05-19 00:00:00 12.2 5 Este 11 Sudeste 0.2 951.9 0.4 84
2018-05-18 23:00:00 12.4 5 Noroeste 13 Norte 2.5 951.6 0.8 86
2018-05-18 22:00:00 12.9 9 Oeste 15 Oeste 2.4 952.1 2 82
2018-05-18 21:00:00 12.8 4 Sudeste -- -- -- 951.5 1.6 74
2018-05-18 20:00:00 16.9 4 Sur 12 Este 0 950.8 0.9 47
2018-05-18 19:00:00 18.5 4 Nordeste 12 Norte 0 950.1 -0.3 41
2018-05-18 18:00:00 19.7 0 Calma 17 Sur 0 949.9 -0.9 34
2018-05-18 17:00:00 20.1 5 Sudeste 19 Sur 0 949.9 -1.6 34
2018-05-18 16:00:00 20.3 5 Sur 18 Sur 0 950.4 -1.4 33
2018-05-18 15:00:00 18.7 0 Calma 11 Nordeste 0 950.8 -1.2 41
2018-05-18 14:00:00 18.9 3 Sur 13 Este 0 951.5 -0.1 46
2018-05-18 13:00:00 17.2 5 Sudeste 9 Este 0 951.8 0.9 58
2018-05-18 12:00:00 15.6 4 Sur 12 Sur 0 952 0.8 66
2018-05-18 11:00:00 14.1 4 Oeste 14 Noroeste 0 951.6 0.9 72
2018-05-18 10:00:00 15.3 5 Nordeste 14 Este 0 950.9 0.5 59
2018-05-18 09:00:00 13.1 0 Calma 4 Este 0 951.2 1.3 83
2018-05-18 08:00:00 10 2 Este 5 Este 0 950.7 0.6 88
2018-05-18 07:00:00 9.6 3 Este 4 Este 0 950.4 0.2 88
2018-05-18 06:00:00 10.1 2 Oeste 8 Sudoeste 0 949.9 -1 88
2018-05-18 05:00:00 10.2 0 Calma 4 Sudoeste 0 950.1 -0.7 85
2018-05-18 04:00:00 10.3 5 Oeste 7 Noroeste 0 950.2 0 85
2018-05-18 03:00:00 12 0 Calma 10 Sur 0 950.9 0.5 78
2018-05-18 02:00:00 12.4 0 Calma 12 Sur 0 950.8 0.8 74
2018-05-18 01:00:00 12 0 Calma 10 Oeste 0 950.2 1.1 72
2018-05-18 00:00:00 12.9 7 Noroeste 16 Oeste 0 950.4 1.7 68
2018-05-17 23:00:00 14.9 5 Oeste 15 Oeste 0 950 1.8 54
2018-05-17 22:00:00 17 5 Sudoeste 14 Oeste 0 949.1 0.9 43
2018-05-17 21:00:00 19.8 4 Oeste 20 Oeste 0 948.7 0.7 35
2018-05-17 20:00:00 21.7 10 Sur 19 Sur 0 948.2 -0.1 27
2018-05-17 19:00:00 23.3 3 Este 11 Oeste 0 948.2 -0.4 25
2018-05-17 18:00:00 21.7 5 Oeste 17 Oeste 0 948 -1 30
2018-05-17 17:00:00 22.5 4 Sur 15 Oeste 0 948.3 -0.6 31
2018-05-17 16:00:00 22.5 6 Oeste 20 Oeste 0 948.6 -0.5 32
2018-05-17 15:00:00 19.9 10 Oeste 22 Oeste 0 949 -0.4 34
2018-05-17 14:00:00 22 9 Oeste 17 Oeste 0 948.9 -0.3 33
2018-05-17 13:00:00 20.7 5 Sudeste 15 Sur 0 949.1 0 32
2018-05-17 12:00:00 19.6 4 Oeste 14 Nordeste 0 949.4 0.4 35
2018-05-17 11:00:00 18.5 3 Noroeste 11 Noroeste 0 949.2 0.3 35
2018-05-17 10:00:00 17.5 0 Calma 4 Nordeste 0 949.1 0.7 43
2018-05-17 09:00:00 14.5 0 Calma 5 Este 0 949 0.6 58
2018-05-17 08:00:00 9.7 3 Sudeste 7 Este 0 948.9 0.5 80
2018-05-17 07:00:00 8 3 Este 10 Este 0 948.4 -0.1 80
2018-05-17 06:00:00 9.4 0 Calma 8 Este 0 948.4 1.2 72
2018-05-17 05:00:00 10.8 4 Este 13 Este 0 948.4 0.6 65
2018-05-17 04:00:00 11.6 4 Este 9 Sudeste 0 948.5 0.7 62
2018-05-17 03:00:00 12.5 6 Este 10 Este 0 947.2 -0.7 60
2018-05-17 02:00:00 11.8 0 Calma 6 Este 0 947.8 0.2 63
2018-05-17 01:00:00 12.3 3 Sudeste 8 Este 0 947.8 0.8 59
2018-05-17 00:00:00 13.4 4 Sudeste 6 Este 0 947.9 1 56
2018-05-16 23:00:00 15.2 4 Sudeste 8 Este 0 947.6 1 48
2018-05-16 22:00:00 15.8 4 Este 5 Este 0 947 0.1 46
2018-05-16 21:00:00 20.5 0 Calma 11 Este 0 946.9 -0.3 31
2018-05-16 20:00:00 23.8 0 Calma 17 Este 0 946.6 -0.7 24
2018-05-16 19:00:00 24 2 Nordeste 17 Este 0 946.9 -1.1 22
2018-05-16 18:00:00 24 6 Este 19 Este 0 947.2 -1.4 23
2018-05-16 17:00:00 22.3 6 Este 15 Sudeste 0 947.3 -1.6 25
2018-05-16 16:00:00 23.8 6 Este 23 Este 0 948 -1.5 24
2018-05-16 15:00:00 22.9 12 Este 26 Este 0 948.6 -0.7 25
2018-05-16 14:00:00 22.6 9 Este 27 Este 0 948.9 -0.6 25
2018-05-16 13:00:00 22.1 11 Este 22 Este 0 949.5 0.1 26
2018-05-16 12:00:00 21.4 5 Sudeste 18 Este 0 949.3 -0.1 29
2018-05-16 11:00:00 20.3 5 Este 10 Sudeste 0 949.5 0.1 33
2018-05-16 10:00:00 18.7 4 Este 16 Nordeste 0 949.4 0 35
2018-05-16 09:00:00 16.1 6 Este 15 Este 0 949.4 0.1 41
2018-05-16 08:00:00 9.3 4 Sudeste 8 Este 0 949.4 0 69
2018-05-16 07:00:00 9.1 5 Este 8 Este 0 949.4 -0.6 64
2018-05-16 06:00:00 8.5 4 Este 6 Este 0 949.3 -1 66
2018-05-16 05:00:00 8.7 5 Este 7 Este 0 949.4 -1.4 65
2018-05-16 04:00:00 9 4 Sudeste 8 Este 0 950 -0.8 62
2018-05-16 03:00:00 9.1 6 Este 9 Este 0 950.3 -0.7 61
2018-05-16 02:00:00 10.1 5 Sudeste 7 Este 0 950.8 -0.3 52
2018-05-16 01:00:00 12 4 Sudeste 10 Este 0 950.8 0.1 45
2018-05-16 00:00:00 12.5 3 Sudeste 9 Nordeste 0 951 0.7 45
2018-05-15 23:00:00 12.2 3 Sudeste 6 Este 0 951.1 1.2 47
2018-05-15 22:00:00 14.1 2 Este 7 Nordeste 0 950.7 0.5 34
2018-05-15 21:00:00 19.9 6 Nordeste 18 Este 0 950.3 -0.1 21
2018-05-15 20:00:00 21.4 7 Nordeste 20 Este 0 949.9 -1 20
2018-05-15 19:00:00 22 8 Nordeste 21 Noroeste 0 950.2 -1.2 20
2018-05-15 18:00:00 22.5 6 Norte 21 Nordeste 0 950.4 -1.5 20
2018-05-15 17:00:00 22.4 9 Nordeste 19 Norte 0 950.9 -1.4 22
2018-05-15 16:00:00 22 9 Este 21 Este 0 951.4 -1.5 22
2018-05-15 15:00:00 21.6 7 Nordeste 20 Este 0 951.9 -1.3 23
2018-05-15 14:00:00 20.9 8 Este 25 Nordeste 0 952.3 -1.1 24
2018-05-15 13:00:00 20 8 Este 21 Nordeste 0 952.9 -0.5 25
2018-05-15 12:00:00 19.4 9 Este 22 Nordeste 0 953.2 -0.2 27
2018-05-15 11:00:00 18 10 Este 44 Este 0 953.4 0.3 31
2018-05-15 10:00:00 15.8 9 Este 19 Este 0 953.4 0.8 36
2018-05-15 09:00:00 13.9 9 Este 18 Este 0 953.4 1.1 41
2018-05-15 08:00:00 10.9 4 Este 10 Este 0 953.1 0.6 55
2018-05-15 07:00:00 8.2 5 Sudeste 8 Este 0 952.6 0.1 70
2018-05-15 06:00:00 7.5 5 Este 8 Este 0 952.3 -0.4 66
2018-05-15 05:00:00 10.6 5 Sudeste 12 Este 0 952.5 -0.5 48
2018-05-15 04:00:00 11.4 6 Este 14 Este 0 952.5 -0.9 46
2018-05-15 03:00:00 12.8 8 Este 15 Nordeste 0 952.7 -0.7 43
2018-05-15 02:00:00 13.1 5 Este 11 Nordeste 0 953 -0.2 44
2018-05-15 01:00:00 12.4 5 Este 9 Nordeste 0 953.4 0.9 47
2018-05-15 00:00:00 14.2 5 Nordeste 13 Norte 0 953.4 1.2 39
2018-05-14 23:00:00 15.7 6 Norte 15 Norte 0 953.2 1 35
2018-05-14 22:00:00 16.3 6 Norte 11 Norte 0 952.5 0.2 34
2018-05-14 21:00:00 17.8 3 Norte 18 Norte 0 952.2 -0.1 32
2018-05-14 20:00:00 18.9 5 Nordeste 17 Nordeste 0 952.2 -0.4 31
2018-05-14 19:00:00 19 5 Norte 23 Nordeste 0 952.3 -0.8 32
2018-05-14 18:00:00 20.7 14 Noroeste 27 Noroeste 0 952.3 -1.4 29
2018-05-14 17:00:00 20.4 13 Noroeste 26 Noroeste 0 952.6 -1.4 32
2018-05-14 16:00:00 20.2 10 Norte 28 Noroeste 0 953.1 -1.5 32
2018-05-14 15:00:00 19.7 9 Noroeste 27 Nordeste 0 953.7 -1.1 33
2018-05-14 14:00:00 18.9 5 Norte 18 Norte 0 954 -0.9 31
2018-05-14 13:00:00 17.9 4 Nordeste 19 Noroeste 0 954.6 -0.5 30
2018-05-14 12:00:00 17.2 8 Este 16 Este 0 954.8 -0.6 32
2018-05-14 11:00:00 15.2 6 Nordeste 19 Nordeste 0 954.9 -0.4 39
2018-05-14 10:00:00 13 9 Nordeste 21 Nordeste 0 955.1 0.1 45
2018-05-14 09:00:00 11.3 10 Nordeste 21 Nordeste 0 955.4 0.4 50
2018-05-14 08:00:00 8.9 3 Este 11 Este 0 955.3 0 56
2018-05-14 07:00:00 8.4 5 Sudeste 14 Nordeste 0 955 -0.3 55
2018-05-14 06:00:00 8.8 5 Este 9 Nordeste 0 955 -0.8 53
2018-05-14 05:00:00 7.8 3 Este 13 Nordeste 0 955.3 -1 51
2018-05-14 04:00:00 10 5 Nordeste 12 Nordeste 0 955.3 -1.1 43
2018-05-14 03:00:00 8.5 0 Calma 16 Nordeste 0 955.8 -0.8 45
2018-05-14 02:00:00 11.2 7 Este 15 Este 0 956.3 -0.2 34
2018-05-14 01:00:00 12.3 4 Nordeste 19 Norte 0 956.4 0.4 31
2018-05-11 20:00:00 18.4 6 Sudoeste 17 Oeste 0 953.3 -0.7 33
2018-05-11 19:00:00 18.9 6 Oeste 20 Oeste 0 953.4 -1.2 36
2018-05-11 18:00:00 18.6 6 Oeste 17 Oeste 0 953.7 -1 36
2018-05-11 17:00:00 18 10 Sudoeste 21 Sudoeste 0 954 -0.9 43
2018-05-11 16:00:00 17.3 8 Sur 22 Sur 0 954.6 -0.2 47
2018-05-11 15:00:00 17 9 Sudoeste 26 Sudoeste 0 954.7 -0.4 50
2018-05-11 14:00:00 17.5 6 Sur 26 Sur 0 954.9 0.1 51
2018-05-11 13:00:00 16.5 6 Sudoeste 21 Sur 0 954.8 0.3 53
2018-05-11 12:00:00 15.6 7 Sur 22 Sur 0 955.1 0.7 54
2018-05-11 11:00:00 14.6 4 Sur 16 Sur 0 954.8 1 60
2018-05-11 10:00:00 13.2 4 Sudeste 12 Sudeste 0 954.5 1.3 64
2018-05-11 09:00:00 10.9 0 Calma 5 Este 0 954.4 1.4 87
2018-05-11 08:00:00 7.5 2 Este 5 Este 0 953.8 0.8 89
2018-05-11 07:00:00 7 0 Calma 7 Este 0 953.2 0.3 89
2018-05-11 06:00:00 6.6 0 Calma 7 Este 0 953 0.1 88
2018-05-11 05:00:00 6.9 4 Este 6 Este 0 953 -0.5 88
2018-05-11 04:00:00 7.2 2 Este 5 Este 0 952.9 -0.7 87
2018-05-11 03:00:00 7.6 3 Este 6 Este 0 952.9 -0.6 86
2018-05-11 02:00:00 8 0 Calma 4 Este 0 953.5 0.1 85
2018-05-11 01:00:00 8.9 0 Calma -- -- 0 953.6 1 80
2018-05-11 00:00:00 10.6 0 Calma 8 Oeste 0 953.5 1.5 69
2018-05-10 23:00:00 11.8 4 Oeste 14 Sudoeste 0 953.4 1.9 58
2018-05-10 22:00:00 13.8 5 Sudoeste 13 Sudoeste 0 952.6 1.5 46
2018-05-10 21:00:00 15.6 6 Sudoeste 15 Sudoeste 0 952 0.8 38
2018-05-10 20:00:00 17.6 6 Sudoeste 14 Oeste 0 951.5 -0.1 36
2018-05-10 19:00:00 18.5 7 Oeste 17 Oeste 0 951.1 -0.8 37
2018-05-10 18:00:00 18.5 8 Sudoeste 15 Sudoeste 0 951.2 -0.6 40
2018-05-10 17:00:00 17.5 0 Calma 10 Sudoeste 0 951.6 -0.2 45
2018-05-10 16:00:00 16.7 5 Oeste 14 Oeste 0 951.9 0.3 48
2018-05-10 15:00:00 16.1 7 Oeste 17 Sudoeste 0 951.8 0.3 51
2018-05-10 14:00:00 15.8 4 Sudeste 15 Sur 0 951.8 0.7 51
2018-05-10 13:00:00 15.9 4 Sudeste 15 Sur 0 951.6 0.6 53
2018-05-10 12:00:00 14.9 5 Sur 15 Sur 0 951.5 0.7 57
2018-05-10 11:00:00 13.8 4 Sudeste 14 Sudeste 0 951.1 0.9 71
2018-05-10 10:00:00 13.9 5 Sur 10 Sudeste 0 951 1.2 75
2018-05-10 09:00:00 12 2 Este 6 Este 0 950.8 1.3 89
2018-05-10 08:00:00 11.7 0 Calma 9 Oeste 0 950.2 0.4 90
2018-05-10 07:00:00 11.3 7 Oeste 12 Oeste 0 949.8 0 90
2018-05-10 06:00:00 12.1 4 Oeste 10 Oeste 0 949.5 0 90
2018-05-10 05:00:00 12.2 0 Calma 8 Oeste 0 949.8 -0.3 90
2018-05-10 04:00:00 12.3 3 Sudoeste 9 Sur 0 949.8 -0.7 90
2018-05-10 03:00:00 12.6 5 Sur 9 Sur 0 949.5 -1 90
2018-05-10 02:00:00 12.7 0 Calma 5 Sur 0 950.1 -0.5 87
2018-05-10 01:00:00 13.3 0 Calma 7 Sudoeste 0 950.5 0.5 85
2018-05-10 00:00:00 13.8 2 Sudoeste 10 Noroeste 0 950.5 1 85
2018-05-09 23:00:00 14.3 3 Sur 16 Sur 0 950.6 1.3 83
2018-05-09 22:00:00 15 6 Sudoeste 16 Sudoeste 0 950 0.7 80
2018-05-09 21:00:00 15.3 5 Sudoeste 19 Sur 0 949.5 0.1 79
2018-05-09 20:00:00 15.5 6 Sudoeste 19 Sudoeste 0 949.3 -0.5 77
2018-05-09 19:00:00 15.9 7 Sudoeste 15 Sur 0 949.3 -0.7 71
2018-05-09 18:00:00 16.2 6 Sudoeste 16 Sudoeste 0 949.4 -1 73
2018-05-09 17:00:00 14.8 6 Sudoeste 14 Sudoeste 0 949.8 -0.5 86
2018-05-09 16:00:00 14.6 4 Sudoeste 12 Sur 0 950 -0.3 86
2018-05-09 15:00:00 14.4 5 Sudoeste 13 Sudoeste 0 950.4 0.2 84
2018-05-09 14:00:00 14.6 6 Sudoeste 13 Sudoeste 0 950.3 0.3 78
2018-05-09 13:00:00 14.6 4 Sudoeste 14 Sudoeste 0 950.3 0.3 78
2018-05-09 12:00:00 14 6 Oeste 18 Oeste 0 950.2 0.9 82
2018-05-09 11:00:00 14 3 Sudoeste 12 Sur 0 950 1 84
2018-05-09 10:00:00 12.9 3 Sur 8 Sudeste 0 950 1.4 90
2018-05-09 09:00:00 12.5 0 Calma 6 Norte 0 949.3 1.2 91
2018-05-09 08:00:00 12.3 0 Calma 8 Noroeste 0 949 1.1 91
2018-05-09 07:00:00 12.3 6 Noroeste 12 Oeste 0 948.6 0.6 91
2018-05-09 06:00:00 12.2 2 Oeste 8 Noroeste 0 948.1 -0.5 91
2018-05-09 05:00:00 10.2 2 Este 8 Oeste 0 947.9 -1.7 90
2018-05-09 04:00:00 10.8 0 Calma 6 Este 0 948 -1.4 90
2018-05-09 03:00:00 11.1 0 Calma 6 Oeste 0 948.6 -0.5 88
2018-05-09 02:00:00 12.4 4 Oeste 8 Este 0 949.6 0.8 86
2018-05-09 01:00:00 12.9 0 Calma 13 Este 0 949.4 0.3 80
2018-05-09 00:00:00 13.5 2 Nordeste 16 Noroeste 0 949.1 0 77
2018-05-08 23:00:00 13.7 3 Noroeste 17 Noroeste 0.6 948.8 0.4 78
2018-05-08 22:00:00 13.8 13 Noroeste 25 Noroeste 2.7 949.1 0 78
2018-05-08 21:00:00 13.7 12 Noroeste 21 Noroeste 1.5 949.1 0.6 76
2018-05-08 20:00:00 12.7 8 Oeste 22 Oeste 1.6 948.4 0.1 84
2018-05-08 19:00:00 13.5 11 Noroeste 25 Oeste 1.6 949.1 0.3 81
2018-05-08 18:00:00 16.4 4 Sudoeste 15 Oeste 0.2 948.5 0 59
2018-05-08 17:00:00 16.3 9 Sudoeste 26 Sudeste 0.1 948.3 -1.1 60
2018-05-08 16:00:00 19.2 8 Sudoeste 21 Sur 0 948.8 -1.1 47
2018-05-08 15:00:00 21.3 4 Sudoeste 17 Oeste 0 948.5 -1.6 35
2018-05-08 14:00:00 20 8 Noroeste 16 Oeste 0 949.4 -0.7 41
2018-05-08 13:00:00 20.5 7 Noroeste 16 Sudoeste 0 949.9 -0.4 42
2018-05-08 12:00:00 18.7 3 Noroeste 13 Sudoeste 0 950.1 -0.1 49
2018-05-08 11:00:00 16.6 2 Oeste 8 Norte 0 950.1 0.2 63
2018-05-08 10:00:00 14.1 0 Calma 5 Oeste 0 950.3 0.8 81
2018-05-08 09:00:00 12.9 0 Calma 8 Oeste 0 950.2 0.6 85
2018-05-08 08:00:00 10.9 0 Calma 3 Este 0 949.9 0.2 89
2018-05-08 07:00:00 9.4 0 Calma 6 Este 0 949.5 -0.4 88
2018-05-08 06:00:00 9.9 2 Este 6 Este 0 949.6 -0.4 88
2018-05-08 05:00:00 10.1 3 Sudeste 5 Este 0 949.7 -0.9 87
2018-05-08 04:00:00 10.3 4 Este 6 Este 0 949.9 -0.9 83
2018-05-08 03:00:00 11.4 3 Sudeste 7 Norte 0 950 -0.9 80
2018-05-08 02:00:00 13 5 Noroeste 12 Noroeste 0 950.6 0 70
2018-05-08 01:00:00 13.9 4 Norte 13 Norte 0 950.8 0.8 63
2018-05-08 00:00:00 14.4 6 Noroeste 12 Noroeste 0 950.9 0.9 60
2018-05-07 23:00:00 15.1 4 Noroeste 14 Noroeste 0 950.6 0.6 56
2018-05-07 22:00:00 14.9 2 Noroeste 15 Norte 0 950 0.2 56
2018-05-07 21:00:00 16.7 3 Norte 20 Nordeste 0 950 0.2 48
2018-05-07 20:00:00 17.5 6 Norte 19 Noroeste 0 950 -0.3 46
2018-05-07 19:00:00 18.2 6 Oeste 11 Sudoeste 0 949.8 -0.7 42
2018-05-07 18:00:00 18.8 5 Oeste 19 Noroeste 0 949.8 -0.8 45
2018-05-07 17:00:00 19 0 Calma 12 Este 0 950.3 -0.9 39
2018-05-07 16:00:00 19.7 6 Este 22 Noroeste 0 950.5 -1.1 38
2018-05-07 15:00:00 19.5 7 Oeste 19 Sur 0 950.6 -1.1 43
2018-05-07 14:00:00 16.8 10 Sur 23 Sur 0 951.2 -0.3 50
2018-05-07 13:00:00 19.5 7 Sur 15 Sudeste 0 951.6 0.2 43
2018-05-07 12:00:00 20.1 4 Este 15 Este 0 951.7 0.5 36
2018-05-07 11:00:00 19 5 Este 10 Este 0 951.5 0.7 40
2018-05-07 10:00:00 17.5 0 Calma 5 Este 0 951.4 0.7 50
2018-05-07 09:00:00 13.4 0 Calma 8 Este 0 951.2 0.5 76
2018-05-07 08:00:00 9 3 Sudeste 6 Este 0 950.8 0.2 88
2018-05-07 07:00:00 8.3 4 Este 6 Este 0 950.7 0.1 88
2018-05-07 06:00:00 8.1 3 Este 6 Este 0 950.7 -0.2 88
2018-05-07 05:00:00 8.4 3 Este 5 Este 0 950.6 -0.6 88
2018-05-07 04:00:00 9.3 3 Sudeste 5 Este 0 950.6 -1 87
2018-05-07 03:00:00 10.5 4 Este 7 Este 0 950.9 -0.4 85
2018-05-07 02:00:00 10.7 0 Calma 8 Este 0 951.2 0.1 84
2018-05-07 01:00:00 11.1 3 Este 5 Este 0 951.6 1.1 85
2018-05-07 00:00:00 12 0 Calma 5 Este 0 951.3 1.2 82
2018-05-06 23:00:00 12.6 2 Este 9 Sudeste 0 951.1 1.5 78
2018-05-06 22:00:00 14 0 Calma 9 Este 0 950.5 1.1 73
2018-05-06 21:00:00 15 5 Este 12 Este 0 950.1 0.9 69
2018-05-06 20:00:00 15.8 5 Este 10 Este 0.1 949.6 -0.1 68
2018-05-06 19:00:00 17.1 6 Este 26 Este 0 949.4 -1 55
2018-05-06 18:00:00 21.3 6 Este 15 Este 0 949.2 -1.8 34
2018-05-06 17:00:00 20 6 Nordeste 10 Este 0 949.7 -1.4 37
2018-05-06 16:00:00 18.9 2 Sur 12 Este 0 950.4 -1.2 42
2018-05-06 15:00:00 18.4 8 Este 13 Este 0 951 -0.8 41
2018-05-06 14:00:00 20.3 7 Este 14 Este 0 951.1 -0.9 36
2018-05-06 13:00:00 18.8 6 Sur 15 Sur 0 951.6 -0.2 41
2018-05-06 12:00:00 18.2 3 Este 16 Sur 0 951.8 0.1 41
2018-05-06 11:00:00 17.7 4 Sudeste 13 Sur 0 952 0.8 43
2018-05-06 10:00:00 15.8 6 Sudeste 17 Este 0 951.8 1.1 47
2018-05-06 09:00:00 13 6 Este 9 Este 0 951.7 1.2 70
2018-05-06 08:00:00 9.7 3 Sudeste 5 Sudeste 0 951.2 0.6 83
2018-05-06 07:00:00 9 0 Calma 6 Este 0 950.7 -0.2 83
2018-05-06 06:00:00 8.8 0 Calma 5 Este 0 950.5 -0.7 80
2018-05-06 05:00:00 9.4 0 Calma 7 Sur 0 950.6 -0.5 74
2018-05-06 04:00:00 9.8 3 Sudeste 5 Este 0 950.9 -0.3 75
2018-05-06 03:00:00 10.3 3 Sudeste 12 Este 0 951.2 0 72
2018-05-06 02:00:00 10.9 4 Este 7 Sudeste 0 951.1 -0.1 69
2018-05-06 01:00:00 11.3 3 Sudeste 6 Este 0 951.2 0.4 67
2018-05-06 00:00:00 11.1 4 Este 7 Este 0 951.2 0.8 69
2018-05-05 23:00:00 12.5 4 Este 6 Este 0 951.2 0.9 64
2018-05-05 22:00:00 13.4 4 Este 5 Este 0 950.8 0.6 59
2018-05-05 21:00:00 16.1 0 Calma 7 Oeste 0 950.4 0 43
2018-05-05 20:00:00 20.7 4 Oeste 13 Oeste 0 950.3 -0.1 28
2018-05-05 19:00:00 20.9 6 Noroeste 12 Noroeste 0 950.2 -0.6 29
2018-05-05 18:00:00 20.2 3 Sur 10 Sur 0 950.4 -0.6 30
2018-05-05 17:00:00 20.1 2 Sudoeste 17 Sur 0 950.4 -0.8 30
2018-05-05 16:00:00 21.8 3 Sur 17 Sur 0 950.8 -0.8 29
2018-05-05 15:00:00 20.2 5 Sudoeste 16 Sur 0 951 -0.8 29
2018-05-05 14:00:00 20.5 5 Oeste 21 Oeste 0 951.2 -0.7 34
2018-05-05 13:00:00 19.3 4 Noroeste 17 Oeste 0 951.6 0.1 39
2018-05-05 12:00:00 18.7 4 Sur 13 Sudoeste 0 951.8 0.4 34
2018-05-05 11:00:00 17.7 2 Nordeste 8 Este 0 951.9 0.9 35
2018-05-05 10:00:00 15.9 0 Calma 7 Sudeste 0 951.5 1 50
2018-05-05 09:00:00 12.4 4 Este 9 Este 0 951.4 0.9 69
2018-05-05 08:00:00 8.1 4 Sudeste 7 Este 0 951 0.5 90
2018-05-05 07:00:00 7.8 4 Este 8 Este 0 950.5 0.1 90
2018-05-05 06:00:00 8 4 Este 9 Este 0 950.5 -0.2 90
2018-05-05 05:00:00 8.1 4 Sudeste 6 Sudeste 0 950.5 -0.3 90
2018-05-05 04:00:00 8.1 0 Calma 6 Este 0 950.4 -0.3 89
2018-05-05 03:00:00 8.3 5 Este 8 Este 0 950.7 -0.1 89
2018-05-05 02:00:00 8.1 4 Este 8 Este 0 950.8 0.3 88
2018-05-05 01:00:00 8.9 0 Calma 6 Este 0 950.7 0.7 87
2018-05-05 00:00:00 8.9 2 Este 4 Este 0 950.8 1.2 85
2018-05-04 23:00:00 10 0 Calma 7 Noroeste 0 950.5 2.1 80
2018-05-04 22:00:00 11.8 3 Oeste 17 Sur 0 950 1.7 71
2018-05-04 21:00:00 13.2 6 Sudoeste 40 Sur 0 949.6 1.6 63
2018-05-04 20:00:00 18.7 4 Nordeste 16 Nordeste 0 948.4 0.6 25
2018-05-04 19:00:00 18.5 4 Norte 13 Norte 0 948.3 0.3 27
2018-05-04 18:00:00 19.3 5 Nordeste 19 Nordeste 0 948 -0.1 27
2018-05-04 17:00:00 18.1 5 Nordeste 17 Noroeste 0 947.8 -0.3 30
2018-05-04 16:00:00 18 4 Norte 20 Norte 0 948 -0.4 30
2018-05-04 15:00:00 18.3 6 Nordeste 19 Nordeste 0 948.1 0 33
2018-05-04 14:00:00 18.7 7 Nordeste 17 Nordeste 0 948.1 -0.1 33
2018-05-04 13:00:00 17.7 2 Noroeste 13 Este 0 948.4 0.3 35
2018-05-04 12:00:00 16.5 0 Calma 14 Este 0 948.1 0.3 37
2018-05-04 11:00:00 15.4 5 Este 10 Este 0 948.2 0.7 38
2018-05-04 10:00:00 13.7 5 Este 11 Este 0 948.1 1 43
2018-05-04 09:00:00 12.2 4 Este 9 Sudeste 0 947.8 0.7 52
2018-05-04 08:00:00 9.4 4 Sudeste 11 Sudeste 0 947.5 0 63
2018-05-04 07:00:00 8.1 3 Sudeste 9 Sudeste 0 947.1 -0.8 70
2018-05-04 06:00:00 8.6 0 Calma 15 Nordeste 0 947.1 -1.2 68
2018-05-04 05:00:00 7.5 0 Calma 5 Oeste 0 947.5 -0.9 75
2018-05-04 04:00:00 8.4 3 Este 6 Nordeste 0 947.9 -1 71
2018-05-04 03:00:00 9.3 2 Este 9 Norte 0 948.3 -0.9 62
2018-05-04 02:00:00 13 6 Nordeste 14 Nordeste 0 948.4 -0.8 43
2018-05-04 01:00:00 13.2 5 Nordeste 12 Nordeste 0 948.9 0.3 44
2018-05-04 00:00:00 13.5 3 Nordeste 8 Nordeste 0 949.2 0.7 45
2018-05-03 23:00:00 14.1 2 Norte 10 Noroeste 0 949.2 1 43
2018-05-03 22:00:00 15.3 3 Norte 11 Nordeste 0 948.6 0.3 38
2018-05-03 21:00:00 15.8 5 Noroeste 18 Noroeste 0 948.5 0.1 36
2018-05-03 20:00:00 16.7 5 Noroeste 14 Noroeste 0 948.2 -0.6 33
2018-05-03 19:00:00 17.3 9 Noroeste 21 Norte 0 948.3 -1 30
2018-05-03 18:00:00 18.8 8 Norte 22 Noroeste 0 948.4 -1.7 29
2018-05-03 17:00:00 19.6 11 Noroeste 21 Noroeste 0 948.8 -1.8 30
2018-05-03 16:00:00 18 4 Nordeste 25 Nordeste 0 949.3 -1.9 30
2018-05-03 15:00:00 19.1 6 Norte 19 Norte 0 950.1 -1.4 30
2018-05-03 14:00:00 16.9 5 Norte 17 Nordeste 0 950.6 -0.6 32
2018-05-03 13:00:00 17.5 6 Nordeste 17 Norte 0 951.2 -0.3 35
2018-05-03 12:00:00 16.1 6 Nordeste 17 Nordeste 0 951.5 -0.1 45
2018-05-03 11:00:00 13.8 9 Norte 17 Nordeste 0 951.2 -0.2 52
2018-05-03 10:00:00 12.5 5 Noroeste 14 Noroeste 0 951.5 0.2 62
2018-05-03 09:00:00 8.5 0 Calma 5 Este 0 951.6 0.1 88
2018-05-03 08:00:00 5.6 0 Calma 5 Este 0 951.4 -0.7 88
2018-05-03 07:00:00 5.3 0 Calma 10 Noroeste 0 951.3 -0.8 85
2018-05-03 06:00:00 7.2 6 Noroeste 10 Noroeste 0 951.5 -1 84
2018-05-03 05:00:00 7.1 7 Noroeste 16 Noroeste 0 952.1 -1 82
2018-05-03 04:00:00 7.3 9 Noroeste 15 Noroeste 0 952.1 -1.2 76
2018-05-03 03:00:00 7.2 0 Calma 10 Noroeste 0 952.5 -0.7 69
2018-05-03 02:00:00 8.8 3 Norte 9 Noroeste 0 953.1 0.1 64
2018-05-03 01:00:00 8.3 2 Noroeste 11 Norte 0 953.3 1.1 62
2018-05-03 00:00:00 6.7 2 Sudeste 5 Este 0 953.2 1.3 72
2018-05-02 23:00:00 7.9 0 Calma -- -- 0 953 1.4 61
2018-05-02 22:00:00 11.2 0 Calma 10 Noroeste 0 952.2 0.6 38
2018-05-02 21:00:00 13.1 6 Oeste 16 Oeste 0 951.9 0.1 34
2018-05-02 20:00:00 15.3 10 Oeste 17 Noroeste 0 951.6 -0.2 30
2018-05-02 19:00:00 14.3 5 Oeste 15 Sudoeste 0 951.6 -0.7 32
2018-05-02 18:00:00 13.9 13 Oeste 23 Noroeste 0 951.8 -0.3 32
2018-05-02 17:00:00 15.9 10 Oeste 22 Sudoeste 0 951.8 -0.6 31
2018-05-02 16:00:00 14.3 6 Oeste 21 Oeste 0 952.3 -0.5 31
2018-05-02 15:00:00 14.6 10 Oeste 29 Oeste 0 952.1 -0.9 33
2018-05-02 14:00:00 14.8 10 Oeste 22 Oeste 0 952.4 -0.6 35
2018-05-02 13:00:00 13.5 6 Oeste 20 Oeste 0 952.8 0 35
2018-05-02 12:00:00 12.6 4 Sur 12 Oeste 0 953 0.4 36
2018-05-02 11:00:00 11.1 9 Oeste 13 Oeste 0 953 0.8 45
2018-05-02 10:00:00 10.6 3 Norte 10 Nordeste 0 952.8 0.9 37
2018-05-02 09:00:00 7.7 3 Este 7 Este 0 952.6 0.6 70
2018-05-02 08:00:00 3.2 4 Este 8 Este 0 952.2 0.1 88
2018-05-02 07:00:00 3.4 5 Este 8 Este 0 951.9 -0.2 87
2018-05-02 06:00:00 3.4 3 Este 5 Este 0 952 -0.4 87
2018-05-02 05:00:00 3.9 3 Sudeste 6 Sudeste 0 952.1 -0.6 84
2018-05-02 04:00:00 6 6 Noroeste 11 Noroeste 0 952.1 -0.4 76
2018-05-02 03:00:00 3.9 0 Calma 5 Este 0 952.4 -0.3 88
2018-05-02 02:00:00 3.9 0 Calma 5 Este 0 952.7 0.6 90
2018-05-02 01:00:00 4 0 Calma 5 Este 0 952.5 0.9 88
2018-05-02 00:00:00 4.9 2 Sudeste 5 Este 0 952.7 1.5 87
2018-05-01 23:00:00 5.1 3 Este 5 Este 0 952.1 1.2 84
2018-05-01 22:00:00 7.1 0 Calma 6 Sudoeste 0 951.6 0.8 70
2018-05-01 21:00:00 8.7 2 Este 12 Noroeste 0 951.2 0.4 54
2018-05-01 20:00:00 11.8 6 Noroeste 26 Noroeste 0 950.9 -0.3 38
2018-05-01 19:00:00 12.8 4 Noroeste 26 Noroeste 0 950.8 -1.3 39
2018-05-01 18:00:00 12 9 Norte 18 Norte 0 950.8 -0.3 51
2018-05-01 17:00:00 7.4 6 Este 26 Nordeste 3 951.2 0.3 77
2018-05-01 16:00:00 7 18 Nordeste 37 Este 0.1 952.1 1.4 59
2018-05-01 15:00:00 10.2 12 Este 24 Este 0.1 951.1 0.3 49
2018-05-01 14:00:00 9.7 15 Norte 26 Noroeste 0.2 950.9 -0.3 51
2018-05-01 13:00:00 11.9 9 Noroeste 23 Nordeste 0 950.7 -0.2 49
2018-05-01 12:00:00 12.6 9 Oeste 19 Noroeste 0 950.8 0.1 42
2018-05-01 11:00:00 10.6 4 Oeste 11 Norte 0 951.2 0.7 62
2018-05-01 10:00:00 8.2 0 Calma 5 Este 0 950.9 0.7 79
2018-05-01 09:00:00 5.9 0 Calma 3 Este 0 950.7 0.2 88
2018-05-01 08:00:00 4.1 0 Calma 6 Este 0 950.5 -0.2 87
2018-05-01 07:00:00 4.6 2 Sudeste 10 Noroeste 0 950.2 -0.9 82
2018-05-01 06:00:00 6.3 3 Norte 11 Noroeste 0 950.5 -1 76
2018-05-01 05:00:00 6.3 4 Noroeste 12 Noroeste 0 950.7 -1.1 76
2018-05-01 04:00:00 5.5 3 Noroeste 12 Norte 0 951.1 -1 81
2018-05-01 03:00:00 4.5 0 Calma 8 Noroeste 0 951.5 -0.4 88
2018-05-01 02:00:00 4.6 2 Este 5 Este 0 951.8 0 87
2018-05-01 01:00:00 5.2 0 Calma -- -- 0 952.1 0.7 86
2018-05-01 00:00:00 4.7 0 Calma -- -- 0 951.9 1.1 84
2018-04-30 23:00:00 6.4 0 Calma 3 Sudeste 0 951.8 1.2 78
2018-04-30 22:00:00 7.6 0 Calma 8 Noroeste 0 951.4 1 63
2018-04-30 21:00:00 10.5 4 Oeste 14 Nordeste 0 950.8 0.5 47
2018-04-30 20:00:00 12 9 Oeste 17 Noroeste 0 950.6 -0.1 41
2018-04-30 19:00:00 12 8 Sudoeste 20 Oeste 0 950.4 -0.8 43
2018-04-30 18:00:00 11.8 9 Oeste 20 Oeste 0 950.3 -1.5 41
2018-04-30 17:00:00 10.6 6 Oeste 22 Oeste 0.5 950.7 -1.6 49
2018-04-30 16:00:00 10.1 5 Oeste 17 Noroeste 0 951.2 -1 48
2018-04-30 15:00:00 10.3 0 Calma 13 Noroeste 0.1 951.8 -0.3 54
2018-04-30 14:00:00 8.8 9 Oeste 17 Oeste 0 952.3 0.3 62
2018-04-30 13:00:00 9.3 5 Oeste 15 Noroeste 0 952.2 0.2 50
2018-04-30 12:00:00 9.1 5 Noroeste 10 Oeste 0 952.1 0.6 58
2018-04-30 11:00:00 8 5 Oeste 9 Oeste 0 952 0.8 64
2018-04-30 10:00:00 7 6 Oeste 9 Oeste 0 952 0.9 75
2018-04-30 09:00:00 4.9 0 Calma -- -- 0 951.5 0.3 87
2018-04-30 08:00:00 2.6 0 Calma 6 Este 0 951.2 -0.4 86
2018-04-30 07:00:00 4.5 3 Nordeste 9 Nordeste 0 951.1 -0.6 82
2018-04-30 06:00:00 4.5 4 Noroeste 11 Noroeste 0 951.2 -1 79
2018-04-30 05:00:00 4.7 3 Noroeste 11 Noroeste 0 951.6 -1 79
2018-04-30 04:00:00 4.3 2 Norte 7 Noroeste 0 951.7 -0.9 79
2018-04-30 03:00:00 3.7 0 Calma 10 Noroeste 0 952.2 -0.4 79
2018-04-30 02:00:00 4 0 Calma 6 Sudoeste 0 952.6 0.1 79
2018-04-30 01:00:00 4.2 0 Calma 5 Sudoeste 0 952.6 0.7 81
2018-04-30 00:00:00 5.2 2 Oeste 10 Noroeste 0 952.6 1.4 76
2018-04-29 23:00:00 5.8 0 Calma 8 Oeste 0 952.5 1.5 72
2018-04-29 22:00:00 6.6 6 Noroeste 13 Oeste 0 951.9 1.1 68
2018-04-29 21:00:00 9.2 12 Oeste 25 Noroeste 0 951.2 0.4 55
2018-04-29 20:00:00 10.3 14 Oeste 32 Noroeste 0 951 0.1 55
2018-04-29 19:00:00 10.6 19 Oeste 35 Oeste 0 950.8 -0.3 52
2018-04-29 18:00:00 10.3 13 Oeste 52 Oeste 0.8 950.8 -0.3 68
2018-04-29 17:00:00 11.2 24 Oeste 42 Noroeste 0 950.9 -0.4 46
2018-04-29 16:00:00 11.9 16 Oeste 40 Oeste 0 951.1 -0.4 40
2018-04-29 15:00:00 12.3 18 Oeste 40 Oeste 0 951.1 -0.5 38
2018-04-29 14:00:00 11.8 19 Oeste 34 Oeste 0 951.3 0.3 41
2018-04-29 13:00:00 10.3 13 Oeste 34 Oeste 0.1 951.5 1.1 51
2018-04-29 12:00:00 8 14 Oeste 34 Oeste 0.2 951.6 2 65
2018-04-29 11:00:00 8.2 15 Oeste 28 Oeste 0 951 2.2 68
2018-04-29 10:00:00 6.8 9 Oeste 19 Oeste 0 950.4 2.7 78
2018-04-29 09:00:00 5.8 5 Oeste 14 Oeste 0 949.6 2.2 86
2018-04-29 08:00:00 5.1 5 Oeste 18 Oeste 0 948.8 1.9 85
2018-04-29 07:00:00 4.5 9 Oeste 15 Oeste 0 947.7 1 84
2018-04-29 06:00:00 5 6 Oeste 46 Oeste 0 947.4 0.7 83
2018-04-29 05:00:00 5.7 10 Oeste 20 Oeste 0.2 946.9 -0.2 87
2018-04-29 04:00:00 5.8 11 Oeste 19 Oeste 0 946.7 -0.1 86
2018-04-29 03:00:00 5.6 13 Noroeste 23 Noroeste 0 946.7 -0.2 84
2018-04-29 02:00:00 6.1 17 Oeste 30 Oeste 0 947.1 0.2 84
2018-04-29 01:00:00 6.8 8 Sur 20 Sudoeste 0.1 946.8 0.3 86
2018-04-29 00:00:00 6.7 5 Oeste 17 Noroeste 0.2 946.9 0.8 86
2018-04-28 23:00:00 6.8 12 Oeste 30 Oeste 1 946.9 1 83
2018-04-28 22:00:00 8.5 3 Oeste 23 Oeste 0.4 946.5 0.3 79
2018-04-28 21:00:00 8.8 17 Oeste 31 Oeste 0 946.1 -0.6 68
2018-04-28 20:00:00 11.3 9 Oeste 25 Oeste 0 945.9 -1 39
2018-04-28 19:00:00 12.5 9 Oeste 22 Noroeste 0 946.2 -1.4 32
2018-04-28 18:00:00 12.7 11 Noroeste 27 Oeste 0 946.7 -1.4 34
2018-04-28 17:00:00 14.3 10 Oeste 27 Noroeste 0 946.9 -1.6 31
2018-04-28 16:00:00 14.8 10 Oeste 30 Oeste 0 947.6 -1.5 31
2018-04-28 15:00:00 13.7 13 Oeste 32 Oeste 0 948.1 -1.2 31
2018-04-28 14:00:00 14 7 Oeste 24 Oeste 0 948.5 -0.7 33
2018-04-28 13:00:00 12.8 9 Sudoeste 21 Oeste 0 949.1 0 34
2018-04-28 12:00:00 11.8 8 Oeste 18 Noroeste 0 949.3 0.3 36
2018-04-28 11:00:00 10.9 11 Noroeste 26 Noroeste 0 949.2 0.7 41
2018-04-28 10:00:00 9.7 7 Noroeste 22 Noroeste 0 949.1 0.6 47
2018-04-28 09:00:00 7.4 9 Noroeste 22 Noroeste 0 949 0.7 57
2018-04-28 08:00:00 8.1 10 Noroeste 20 Norte 0 948.5 0 74
2018-04-28 07:00:00 9.4 9 Noroeste 21 Noroeste 0 948.5 -0.2 86
2018-04-28 06:00:00 8.5 0 Calma 4 Sudeste 0 948.3 -1.1 88
2018-04-28 05:00:00 8.7 0 Calma 4 Este 0 948.5 -1.3 86
2018-04-28 04:00:00 9.9 0 Calma 7 Oeste 0 948.7 -1.3 82
2018-04-28 03:00:00 10.9 5 Noroeste 9 Noroeste 0 949.4 -0.8 76
2018-04-28 02:00:00 11.5 4 Noroeste 13 Noroeste 0 949.8 -0.6 70
2018-04-28 01:00:00 12.6 10 Noroeste 20 Oeste 0 950 -0.1 66
2018-04-28 00:00:00 12.9 6 Noroeste 13 Noroeste 0 950.2 0.8 59